sensor_id;sensor_type;location;lat;lon;timestamp;temperature;humidity
18611;DHT22;9435;52.122;5.502;2023-06-24T00:00:35;18.00;99.90
18611;DHT22;9435;52.122;5.502;2023-06-24T00:03:03;18.00;99.90
18611;DHT22;9435;52.122;5.502;2023-06-24T00:05:33;18.00;99.90
18611;DHT22;9435;52.122;5.502;2023-06-24T00:08:00;18.10;99.90
18611;DHT22;9435;52.122;5.502;2023-06-24T00:10:28;18.00;99.90
18611;DHT22;9435;52.122;5.502;2023-06-24T00:12:55;18.10;99.90
18611;DHT22;9435;52.122;5.502;2023-06-24T00:15:24;18.10;99.90
18611;DHT22;9435;52.122;5.502;2023-06-24T00:17:51;18.10;99.90
18611;DHT22;9435;52.122;5.502;2023-06-24T00:20:18;18.10;99.90
18611;DHT22;9435;52.122;5.502;2023-06-24T00:22:45;18.00;99.90
18611;DHT22;9435;52.122;5.502;2023-06-24T00:25:14;18.00;99.90
18611;DHT22;9435;52.122;5.502;2023-06-24T00:27:42;18.00;99.90
18611;DHT22;9435;52.122;5.502;2023-06-24T00:30:10;18.00;99.90
18611;DHT22;9435;52.122;5.502;2023-06-24T00:32:39;17.90;99.90
18611;DHT22;9435;52.122;5.502;2023-06-24T00:35:06;17.90;99.90
18611;DHT22;9435;52.122;5.502;2023-06-24T00:37:34;17.80;99.90
18611;DHT22;9435;52.122;5.502;2023-06-24T00:40:01;17.70;99.90
18611;DHT22;9435;52.122;5.502;2023-06-24T00:42:29;17.60;99.90
18611;DHT22;9435;52.122;5.502;2023-06-24T00:44:56;17.70;99.90
18611;DHT22;9435;52.122;5.502;2023-06-24T00:47:23;17.60;99.90
18611;DHT22;9435;52.122;5.502;2023-06-24T00:49:52;17.40;99.90
18611;DHT22;9435;52.122;5.502;2023-06-24T00:52:20;17.30;99.90
18611;DHT22;9435;52.122;5.502;2023-06-24T00:54:47;17.30;99.90
18611;DHT22;9435;52.122;5.502;2023-06-24T00:57:14;17.30;99.90
18611;DHT22;9435;52.122;5.502;2023-06-24T00:59:43;17.20;99.90
18611;DHT22;9435;52.122;5.502;2023-06-24T01:02:11;17.20;99.90
18611;DHT22;9435;52.122;5.502;2023-06-24T01:04:38;17.20;99.90
18611;DHT22;9435;52.122;5.502;2023-06-24T01:07:07;17.20;99.90
18611;DHT22;9435;52.122;5.502;2023-06-24T01:09:35;17.20;99.90
18611;DHT22;9435;52.122;5.502;2023-06-24T01:12:02;17.20;99.90
18611;DHT22;9435;52.122;5.502;2023-06-24T01:14:29;17.20;99.90
18611;DHT22;9435;52.122;5.502;2023-06-24T01:17:00;17.00;99.90
18611;DHT22;9435;52.122;5.502;2023-06-24T01:20:01;16.90;99.90
18611;DHT22;9435;52.122;5.502;2023-06-24T01:22:57;16.70;99.90
18611;DHT22;9435;52.122;5.502;2023-06-24T01:25:46;16.50;99.90
18611;DHT22;9435;52.122;5.502;2023-06-24T01:28:40;16.60;99.90
18611;DHT22;9435;52.122;5.502;2023-06-24T01:31:38;16.80;99.90
18611;DHT22;9435;52.122;5.502;2023-06-24T01:34:13;16.80;99.90
18611;DHT22;9435;52.122;5.502;2023-06-24T01:36:47;16.80;99.90
18611;DHT22;9435;52.122;5.502;2023-06-24T01:39:17;16.80;99.90
18611;DHT22;9435;52.122;5.502;2023-06-24T01:41:52;16.90;99.90
18611;DHT22;9435;52.122;5.502;2023-06-24T01:44:21;16.90;99.90
18611;DHT22;9435;52.122;5.502;2023-06-24T01:46:52;16.90;99.90
18611;DHT22;9435;52.122;5.502;2023-06-24T01:49:21;16.90;99.90
18611;DHT22;9435;52.122;5.502;2023-06-24T01:51:50;16.90;99.90
18611;DHT22;9435;52.122;5.502;2023-06-24T01:54:18;16.90;99.90
18611;DHT22;9435;52.122;5.502;2023-06-24T01:56:48;16.90;99.90
18611;DHT22;9435;52.122;5.502;2023-06-24T01:59:17;16.90;99.90
18611;DHT22;9435;52.122;5.502;2023-06-24T02:01:46;16.90;99.90
18611;DHT22;9435;52.122;5.502;2023-06-24T02:04:16;16.90;99.90
18611;DHT22;9435;52.122;5.502;2023-06-24T02:06:44;16.90;99.90
18611;DHT22;9435;52.122;5.502;2023-06-24T02:09:15;16.80;99.90
18611;DHT22;9435;52.122;5.502;2023-06-24T02:11:44;16.80;99.90
18611;DHT22;9435;52.122;5.502;2023-06-24T02:14:13;16.70;99.90
18611;DHT22;9435;52.122;5.502;2023-06-24T02:16:42;16.60;99.90
18611;DHT22;9435;52.122;5.502;2023-06-24T02:19:11;16.60;99.90
18611;DHT22;9435;52.122;5.502;2023-06-24T02:21:41;16.60;99.90
18611;DHT22;9435;52.122;5.502;2023-06-24T02:24:09;16.60;99.90
18611;DHT22;9435;52.122;5.502;2023-06-24T02:26:37;16.60;99.90
18611;DHT22;9435;52.122;5.502;2023-06-24T02:29:08;16.60;99.90
18611;DHT22;9435;52.122;5.502;2023-06-24T02:31:36;16.40;99.90
18611;DHT22;9435;52.122;5.502;2023-06-24T02:34:03;16.20;99.90
18611;DHT22;9435;52.122;5.502;2023-06-24T02:36:30;16.30;99.90
18611;DHT22;9435;52.122;5.502;2023-06-24T02:38:59;16.30;99.90
18611;DHT22;9435;52.122;5.502;2023-06-24T02:41:26;16.30;99.90
18611;DHT22;9435;52.122;5.502;2023-06-24T02:43:53;16.30;99.90
18611;DHT22;9435;52.122;5.502;2023-06-24T02:46:21;16.40;99.90
18611;DHT22;9435;52.122;5.502;2023-06-24T02:48:49;16.40;99.90
18611;DHT22;9435;52.122;5.502;2023-06-24T02:51:18;16.30;99.90
18611;DHT22;9435;52.122;5.502;2023-06-24T02:53:46;16.20;99.90
18611;DHT22;9435;52.122;5.502;2023-06-24T02:56:15;16.20;99.90
18611;DHT22;9435;52.122;5.502;2023-06-24T02:58:46;16.20;99.90
18611;DHT22;9435;52.122;5.502;2023-06-24T03:01:14;16.20;99.90
18611;DHT22;9435;52.122;5.502;2023-06-24T03:03:42;16.20;99.90
18611;DHT22;9435;52.122;5.502;2023-06-24T03:06:14;16.20;99.90
18611;DHT22;9435;52.122;5.502;2023-06-24T03:08:43;16.20;99.90
18611;DHT22;9435;52.122;5.502;2023-06-24T03:11:13;16.20;99.90
18611;DHT22;9435;52.122;5.502;2023-06-24T03:13:42;16.10;99.90
18611;DHT22;9435;52.122;5.502;2023-06-24T03:16:09;16.10;99.90
18611;DHT22;9435;52.122;5.502;2023-06-24T03:18:38;16.10;99.90
18611;DHT22;9435;52.122;5.502;2023-06-24T03:21:05;16.00;99.90
18611;DHT22;9435;52.122;5.502;2023-06-24T03:23:33;16.10;99.90
18611;DHT22;9435;52.122;5.502;2023-06-24T03:26:00;16.00;99.90
18611;DHT22;9435;52.122;5.502;2023-06-24T03:28:29;15.90;99.90
18611;DHT22;9435;52.122;5.502;2023-06-24T03:30:57;15.90;99.90
18611;DHT22;9435;52.122;5.502;2023-06-24T03:33:24;15.90;99.90
18611;DHT22;9435;52.122;5.502;2023-06-24T03:35:52;15.80;99.90
18611;DHT22;9435;52.122;5.502;2023-06-24T03:38:20;15.90;99.90
18611;DHT22;9435;52.122;5.502;2023-06-24T03:40:48;15.90;99.90
18611;DHT22;9435;52.122;5.502;2023-06-24T03:43:15;15.90;99.90
18611;DHT22;9435;52.122;5.502;2023-06-24T03:45:42;15.80;99.90
18611;DHT22;9435;52.122;5.502;2023-06-24T03:48:11;15.80;99.90
18611;DHT22;9435;52.122;5.502;2023-06-24T03:50:38;15.70;99.90
18611;DHT22;9435;52.122;5.502;2023-06-24T03:53:05;15.70;99.90
18611;DHT22;9435;52.122;5.502;2023-06-24T03:55:32;15.70;99.90
18611;DHT22;9435;52.122;5.502;2023-06-24T03:58:00;15.70;99.90
18611;DHT22;9435;52.122;5.502;2023-06-24T04:00:27;15.80;99.90
18611;DHT22;9435;52.122;5.502;2023-06-24T04:02:54;15.80;99.90
18611;DHT22;9435;52.122;5.502;2023-06-24T04:05:22;15.80;99.90
18611;DHT22;9435;52.122;5.502;2023-06-24T04:07:51;15.80;99.90
18611;DHT22;9435;52.122;5.502;2023-06-24T04:10:19;15.80;99.90
18611;DHT22;9435;52.122;5.502;2023-06-24T04:12:46;15.80;99.90
18611;DHT22;9435;52.122;5.502;2023-06-24T04:15:13;15.80;99.90
18611;DHT22;9435;52.122;5.502;2023-06-24T04:17:40;15.80;99.90
18611;DHT22;9435;52.122;5.502;2023-06-24T04:20:08;15.90;99.90
18611;DHT22;9435;52.122;5.502;2023-06-24T04:22:37;16.00;99.90
18611;DHT22;9435;52.122;5.502;2023-06-24T04:25:05;16.10;99.90
18611;DHT22;9435;52.122;5.502;2023-06-24T04:27:33;16.20;99.90
18611;DHT22;9435;52.122;5.502;2023-06-24T04:30:00;16.40;99.90
18611;DHT22;9435;52.122;5.502;2023-06-24T04:32:27;16.50;99.90
18611;DHT22;9435;52.122;5.502;2023-06-24T04:34:54;16.70;99.90
18611;DHT22;9435;52.122;5.502;2023-06-24T04:37:21;16.90;99.90
18611;DHT22;9435;52.122;5.502;2023-06-24T04:39:50;17.00;99.90
18611;DHT22;9435;52.122;5.502;2023-06-24T04:42:17;17.20;99.90
18611;DHT22;9435;52.122;5.502;2023-06-24T04:44:44;17.40;99.90
18611;DHT22;9435;52.122;5.502;2023-06-24T04:47:11;17.50;99.90
18611;DHT22;9435;52.122;5.502;2023-06-24T04:49:39;17.70;99.90
18611;DHT22;9435;52.122;5.502;2023-06-24T04:52:07;17.80;99.90
18611;DHT22;9435;52.122;5.502;2023-06-24T04:54:34;17.90;99.90
18611;DHT22;9435;52.122;5.502;2023-06-24T04:57:05;18.10;99.90
18611;DHT22;9435;52.122;5.502;2023-06-24T04:59:32;18.20;99.90
18611;DHT22;9435;52.122;5.502;2023-06-24T05:01:59;18.30;99.90
18611;DHT22;9435;52.122;5.502;2023-06-24T05:04:27;18.40;99.90
18611;DHT22;9435;52.122;5.502;2023-06-24T05:06:54;18.40;99.90
18611;DHT22;9435;52.122;5.502;2023-06-24T05:09:21;18.50;99.90
18611;DHT22;9435;52.122;5.502;2023-06-24T05:11:48;18.50;99.90
18611;DHT22;9435;52.122;5.502;2023-06-24T05:14:16;18.50;99.90
18611;DHT22;9435;52.122;5.502;2023-06-24T05:16:44;18.50;99.90
18611;DHT22;9435;52.122;5.502;2023-06-24T05:19:11;18.50;99.90
18611;DHT22;9435;52.122;5.502;2023-06-24T05:21:38;18.50;99.90
18611;DHT22;9435;52.122;5.502;2023-06-24T05:24:06;18.60;99.90
18611;DHT22;9435;52.122;5.502;2023-06-24T05:26:33;18.60;99.90
18611;DHT22;9435;52.122;5.502;2023-06-24T05:29:00;18.50;99.90
18611;DHT22;9435;52.122;5.502;2023-06-24T05:31:28;18.50;99.90
18611;DHT22;9435;52.122;5.502;2023-06-24T05:33:56;18.60;99.90
18611;DHT22;9435;52.122;5.502;2023-06-24T05:36:23;18.70;99.90
18611;DHT22;9435;52.122;5.502;2023-06-24T05:38:50;18.90;99.90
18611;DHT22;9435;52.122;5.502;2023-06-24T05:41:17;19.10;99.90
18611;DHT22;9435;52.122;5.502;2023-06-24T05:43:45;19.30;99.90
18611;DHT22;9435;52.122;5.502;2023-06-24T05:46:12;19.50;99.90
18611;DHT22;9435;52.122;5.502;2023-06-24T05:48:43;19.70;99.90
18611;DHT22;9435;52.122;5.502;2023-06-24T05:51:11;19.90;99.90
18611;DHT22;9435;52.122;5.502;2023-06-24T05:53:38;20.00;99.90
18611;DHT22;9435;52.122;5.502;2023-06-24T05:56:05;20.30;99.90
18611;DHT22;9435;52.122;5.502;2023-06-24T05:58:32;20.60;99.90
18611;DHT22;9435;52.122;5.502;2023-06-24T06:01:02;20.80;99.90
18611;DHT22;9435;52.122;5.502;2023-06-24T06:03:30;21.00;99.90
18611;DHT22;9435;52.122;5.502;2023-06-24T06:06:01;21.30;99.90
18611;DHT22;9435;52.122;5.502;2023-06-24T06:08:28;21.50;99.90
18611;DHT22;9435;52.122;5.502;2023-06-24T06:10:56;21.70;99.90
18611;DHT22;9435;52.122;5.502;2023-06-24T06:13:23;21.90;99.90
18611;DHT22;9435;52.122;5.502;2023-06-24T06:15:50;22.10;99.90
18611;DHT22;9435;52.122;5.502;2023-06-24T06:18:18;22.30;99.90
18611;DHT22;9435;52.122;5.502;2023-06-24T06:20:45;22.50;99.90
18611;DHT22;9435;52.122;5.502;2023-06-24T06:23:14;22.70;99.90
18611;DHT22;9435;52.122;5.502;2023-06-24T06:25:42;22.90;99.90
18611;DHT22;9435;52.122;5.502;2023-06-24T06:28:09;23.20;99.90
18611;DHT22;9435;52.122;5.502;2023-06-24T06:30:36;23.20;99.90
18611;DHT22;9435;52.122;5.502;2023-06-24T06:33:03;23.40;99.90
18611;DHT22;9435;52.122;5.502;2023-06-24T06:35:31;23.40;99.90
18611;DHT22;9435;52.122;5.502;2023-06-24T06:37:58;23.40;99.90
18611;DHT22;9435;52.122;5.502;2023-06-24T06:40:27;23.40;99.90
18611;DHT22;9435;52.122;5.502;2023-06-24T06:42:54;23.70;99.90
18611;DHT22;9435;52.122;5.502;2023-06-24T06:45:21;23.60;99.90
18611;DHT22;9435;52.122;5.502;2023-06-24T06:47:49;23.90;99.90
18611;DHT22;9435;52.122;5.502;2023-06-24T06:50:17;24.00;99.90
18611;DHT22;9435;52.122;5.502;2023-06-24T06:52:46;24.30;99.90
18611;DHT22;9435;52.122;5.502;2023-06-24T06:55:17;24.20;99.90
18611;DHT22;9435;52.122;5.502;2023-06-24T06:57:47;24.30;99.90
18611;DHT22;9435;52.122;5.502;2023-06-24T07:00:15;24.30;99.90
18611;DHT22;9435;52.122;5.502;2023-06-24T07:02:42;24.50;99.90
18611;DHT22;9435;52.122;5.502;2023-06-24T07:05:10;24.90;99.90
18611;DHT22;9435;52.122;5.502;2023-06-24T07:07:37;25.10;99.90
18611;DHT22;9435;52.122;5.502;2023-06-24T07:10:05;25.40;99.90
18611;DHT22;9435;52.122;5.502;2023-06-24T07:12:32;25.60;99.90
18611;DHT22;9435;52.122;5.502;2023-06-24T07:15:01;26.00;99.90
18611;DHT22;9435;52.122;5.502;2023-06-24T07:17:28;25.90;99.90
18611;DHT22;9435;52.122;5.502;2023-06-24T07:19:55;25.90;99.90
18611;DHT22;9435;52.122;5.502;2023-06-24T07:22:24;25.60;99.90
18611;DHT22;9435;52.122;5.502;2023-06-24T07:24:51;26.00;99.90
18611;DHT22;9435;52.122;5.502;2023-06-24T07:27:18;26.40;99.90
18611;DHT22;9435;52.122;5.502;2023-06-24T07:29:45;26.70;99.90
18611;DHT22;9435;52.122;5.502;2023-06-24T07:32:14;26.80;99.90
18611;DHT22;9435;52.122;5.502;2023-06-24T07:34:41;26.90;99.90
18611;DHT22;9435;52.122;5.502;2023-06-24T07:37:08;27.00;99.90
18611;DHT22;9435;52.122;5.502;2023-06-24T07:39:35;27.10;99.90
18611;DHT22;9435;52.122;5.502;2023-06-24T07:42:03;27.00;99.90
18611;DHT22;9435;52.122;5.502;2023-06-24T07:44:30;26.90;99.90
18611;DHT22;9435;52.122;5.502;2023-06-24T07:46:57;27.10;99.90
18611;DHT22;9435;52.122;5.502;2023-06-24T07:49:26;27.30;99.90
18611;DHT22;9435;52.122;5.502;2023-06-24T07:51:53;27.30;99.90
18611;DHT22;9435;52.122;5.502;2023-06-24T07:54:20;27.30;99.90
18611;DHT22;9435;52.122;5.502;2023-06-24T07:56:47;27.40;99.90
18611;DHT22;9435;52.122;5.502;2023-06-24T07:59:14;27.50;99.90
18611;DHT22;9435;52.122;5.502;2023-06-24T08:01:41;27.60;99.90
18611;DHT22;9435;52.122;5.502;2023-06-24T08:04:09;27.70;99.90
18611;DHT22;9435;52.122;5.502;2023-06-24T08:06:37;27.70;99.90
18611;DHT22;9435;52.122;5.502;2023-06-24T08:09:04;27.40;99.90
18611;DHT22;9435;52.122;5.502;2023-06-24T08:11:31;27.50;99.90
18611;DHT22;9435;52.122;5.502;2023-06-24T08:13:59;27.60;99.90
18611;DHT22;9435;52.122;5.502;2023-06-24T08:16:27;27.90;99.90
18611;DHT22;9435;52.122;5.502;2023-06-24T08:18:54;28.00;99.90
18611;DHT22;9435;52.122;5.502;2023-06-24T08:21:22;28.00;99.90
18611;DHT22;9435;52.122;5.502;2023-06-24T08:23:50;28.50;99.90
18611;DHT22;9435;52.122;5.502;2023-06-24T08:26:19;28.70;99.90
18611;DHT22;9435;52.122;5.502;2023-06-24T08:28:47;28.70;99.90
18611;DHT22;9435;52.122;5.502;2023-06-24T08:31:15;28.50;99.90
18611;DHT22;9435;52.122;5.502;2023-06-24T08:33:45;28.90;99.90
18611;DHT22;9435;52.122;5.502;2023-06-24T08:36:12;29.00;99.90
18611;DHT22;9435;52.122;5.502;2023-06-24T08:38:39;28.90;99.90
18611;DHT22;9435;52.122;5.502;2023-06-24T08:41:08;29.00;99.90
18611;DHT22;9435;52.122;5.502;2023-06-24T08:43:37;29.00;99.90
18611;DHT22;9435;52.122;5.502;2023-06-24T08:46:04;29.20;99.90
18611;DHT22;9435;52.122;5.502;2023-06-24T08:48:32;29.00;99.90
18611;DHT22;9435;52.122;5.502;2023-06-24T08:51:08;28.80;99.90
18611;DHT22;9435;52.122;5.502;2023-06-24T08:53:36;29.10;99.90
18611;DHT22;9435;52.122;5.502;2023-06-24T08:56:04;29.40;99.90
18611;DHT22;9435;52.122;5.502;2023-06-24T08:58:33;29.60;99.90
18611;DHT22;9435;52.122;5.502;2023-06-24T09:01:01;29.80;99.90
18611;DHT22;9435;52.122;5.502;2023-06-24T09:03:28;29.70;99.90
18611;DHT22;9435;52.122;5.502;2023-06-24T09:05:55;29.20;99.90
18611;DHT22;9435;52.122;5.502;2023-06-24T09:08:22;29.50;99.90
18611;DHT22;9435;52.122;5.502;2023-06-24T09:10:53;29.70;99.90
18611;DHT22;9435;52.122;5.502;2023-06-24T09:13:21;29.90;99.90
18611;DHT22;9435;52.122;5.502;2023-06-24T09:15:57;29.80;99.90
18611;DHT22;9435;52.122;5.502;2023-06-24T09:18:31;29.80;99.90
18611;DHT22;9435;52.122;5.502;2023-06-24T09:20:58;29.90;99.90
18611;DHT22;9435;52.122;5.502;2023-06-24T09:23:27;29.90;99.90
18611;DHT22;9435;52.122;5.502;2023-06-24T09:25:57;30.10;99.90
18611;DHT22;9435;52.122;5.502;2023-06-24T09:28:26;30.10;99.90
18611;DHT22;9435;52.122;5.502;2023-06-24T09:31:06;30.20;99.90
18611;DHT22;9435;52.122;5.502;2023-06-24T09:33:33;30.30;99.90
18611;DHT22;9435;52.122;5.502;2023-06-24T09:36:03;30.40;99.90
18611;DHT22;9435;52.122;5.502;2023-06-24T09:38:34;30.60;99.90
18611;DHT22;9435;52.122;5.502;2023-06-24T09:41:05;30.40;99.90
18611;DHT22;9435;52.122;5.502;2023-06-24T09:43:34;30.30;99.90
18611;DHT22;9435;52.122;5.502;2023-06-24T09:46:21;30.20;99.90
18611;DHT22;9435;52.122;5.502;2023-06-24T09:48:53;30.10;99.90
18611;DHT22;9435;52.122;5.502;2023-06-24T09:51:20;30.40;99.90
18611;DHT22;9435;52.122;5.502;2023-06-24T09:53:51;30.60;99.90
18611;DHT22;9435;52.122;5.502;2023-06-24T09:56:23;30.60;99.90
18611;DHT22;9435;52.122;5.502;2023-06-24T09:58:50;30.90;99.90
18611;DHT22;9435;52.122;5.502;2023-06-24T10:01:19;30.60;99.90
18611;DHT22;9435;52.122;5.502;2023-06-24T10:03:47;30.40;99.90
18611;DHT22;9435;52.122;5.502;2023-06-24T10:06:14;30.30;99.90
18611;DHT22;9435;52.122;5.502;2023-06-24T10:08:42;30.80;99.90
18611;DHT22;9435;52.122;5.502;2023-06-24T10:11:09;31.10;99.90
18611;DHT22;9435;52.122;5.502;2023-06-24T10:13:36;30.40;99.90
18611;DHT22;9435;52.122;5.502;2023-06-24T10:16:04;30.40;99.90
18611;DHT22;9435;52.122;5.502;2023-06-24T10:18:37;30.80;99.90
18611;DHT22;9435;52.122;5.502;2023-06-24T10:21:06;30.40;99.90
18611;DHT22;9435;52.122;5.502;2023-06-24T10:23:39;30.90;99.90
18611;DHT22;9435;52.122;5.502;2023-06-24T10:26:08;31.20;99.90
18611;DHT22;9435;52.122;5.502;2023-06-24T10:29:12;31.10;99.90
18611;DHT22;9435;52.122;5.502;2023-06-24T10:31:53;31.20;99.90
18611;DHT22;9435;52.122;5.502;2023-06-24T10:34:32;31.20;99.90
18611;DHT22;9435;52.122;5.502;2023-06-24T10:37:01;31.50;99.90
18611;DHT22;9435;52.122;5.502;2023-06-24T10:39:39;31.70;99.90
18611;DHT22;9435;52.122;5.502;2023-06-24T10:42:29;31.80;99.90
18611;DHT22;9435;52.122;5.502;2023-06-24T10:44:57;31.50;99.90
18611;DHT22;9435;52.122;5.502;2023-06-24T10:47:25;31.70;99.90
18611;DHT22;9435;52.122;5.502;2023-06-24T10:53:11;31.50;99.90
18611;DHT22;9435;52.122;5.502;2023-06-24T10:56:53;31.40;99.90
18611;DHT22;9435;52.122;5.502;2023-06-24T10:59:40;31.10;99.90
18611;DHT22;9435;52.122;5.502;2023-06-24T11:02:08;31.50;99.90
18611;DHT22;9435;52.122;5.502;2023-06-24T11:04:42;31.70;99.90
18611;DHT22;9435;52.122;5.502;2023-06-24T11:07:11;31.50;99.90
18611;DHT22;9435;52.122;5.502;2023-06-24T11:09:40;31.70;99.90
18611;DHT22;9435;52.122;5.502;2023-06-24T11:12:09;31.50;99.90
18611;DHT22;9435;52.122;5.502;2023-06-24T11:14:38;31.70;99.90
18611;DHT22;9435;52.122;5.502;2023-06-24T11:17:06;31.80;99.90
18611;DHT22;9435;52.122;5.502;2023-06-24T11:19:33;31.80;99.90
18611;DHT22;9435;52.122;5.502;2023-06-24T11:22:05;32.10;99.90
18611;DHT22;9435;52.122;5.502;2023-06-24T11:24:33;32.30;99.90
18611;DHT22;9435;52.122;5.502;2023-06-24T11:27:03;32.40;99.90
18611;DHT22;9435;52.122;5.502;2023-06-24T11:29:32;32.20;99.90
18611;DHT22;9435;52.122;5.502;2023-06-24T11:32:00;32.00;99.90
18611;DHT22;9435;52.122;5.502;2023-06-24T11:34:27;31.90;99.90
18611;DHT22;9435;52.122;5.502;2023-06-24T11:36:54;32.30;99.90
18611;DHT22;9435;52.122;5.502;2023-06-24T11:39:23;32.40;99.90
18611;DHT22;9435;52.122;5.502;2023-06-24T11:41:52;32.20;99.90
18611;DHT22;9435;52.122;5.502;2023-06-24T11:44:19;31.30;99.90
18611;DHT22;9435;52.122;5.502;2023-06-24T11:46:47;31.10;99.90
18611;DHT22;9435;52.122;5.502;2023-06-24T11:49:14;31.00;99.90
18611;DHT22;9435;52.122;5.502;2023-06-24T11:51:49;30.90;99.90
18611;DHT22;9435;52.122;5.502;2023-06-24T11:54:18;30.60;99.90
18611;DHT22;9435;52.122;5.502;2023-06-24T11:56:51;30.20;99.90
18611;DHT22;9435;52.122;5.502;2023-06-24T11:59:21;30.20;99.90
18611;DHT22;9435;52.122;5.502;2023-06-24T12:01:53;30.10;99.90
18611;DHT22;9435;52.122;5.502;2023-06-24T12:04:21;30.30;99.90
18611;DHT22;9435;52.122;5.502;2023-06-24T12:06:53;30.80;99.90
18611;DHT22;9435;52.122;5.502;2023-06-24T12:09:21;30.90;99.90
18611;DHT22;9435;52.122;5.502;2023-06-24T12:11:48;31.00;99.90
18611;DHT22;9435;52.122;5.502;2023-06-24T12:14:16;30.70;99.90
18611;DHT22;9435;52.122;5.502;2023-06-24T12:16:43;30.50;99.90
18611;DHT22;9435;52.122;5.502;2023-06-24T12:19:11;30.20;99.90
18611;DHT22;9435;52.122;5.502;2023-06-24T12:21:38;30.50;99.90
18611;DHT22;9435;52.122;5.502;2023-06-24T12:24:05;30.20;99.90
18611;DHT22;9435;52.122;5.502;2023-06-24T12:26:32;30.00;99.90
18611;DHT22;9435;52.122;5.502;2023-06-24T12:29:00;29.80;99.90
18611;DHT22;9435;52.122;5.502;2023-06-24T12:31:28;29.60;99.90
18611;DHT22;9435;52.122;5.502;2023-06-24T12:33:55;29.50;99.90
18611;DHT22;9435;52.122;5.502;2023-06-24T12:36:22;29.50;99.90
18611;DHT22;9435;52.122;5.502;2023-06-24T12:38:49;29.70;99.90
18611;DHT22;9435;52.122;5.502;2023-06-24T12:41:17;29.90;99.90
18611;DHT22;9435;52.122;5.502;2023-06-24T12:43:44;30.10;99.90
18611;DHT22;9435;52.122;5.502;2023-06-24T12:46:11;29.80;99.90
18611;DHT22;9435;52.122;5.502;2023-06-24T12:48:39;30.10;99.90
18611;DHT22;9435;52.122;5.502;2023-06-24T12:51:06;30.20;99.90
18611;DHT22;9435;52.122;5.502;2023-06-24T12:53:34;30.60;99.90
18611;DHT22;9435;52.122;5.502;2023-06-24T12:56:01;30.80;99.90
18611;DHT22;9435;52.122;5.502;2023-06-24T12:58:28;30.60;99.90
18611;DHT22;9435;52.122;5.502;2023-06-24T13:00:55;30.30;99.90
18611;DHT22;9435;52.122;5.502;2023-06-24T13:03:22;30.40;99.90
18611;DHT22;9435;52.122;5.502;2023-06-24T13:05:51;30.60;99.90
18611;DHT22;9435;52.122;5.502;2023-06-24T13:08:19;31.00;99.90
18611;DHT22;9435;52.122;5.502;2023-06-24T13:10:46;31.00;99.90
18611;DHT22;9435;52.122;5.502;2023-06-24T13:13:13;31.00;99.90
18611;DHT22;9435;52.122;5.502;2023-06-24T13:15:40;31.40;99.90
18611;DHT22;9435;52.122;5.502;2023-06-24T13:18:08;31.40;99.90
18611;DHT22;9435;52.122;5.502;2023-06-24T13:20:35;31.40;99.90
18611;DHT22;9435;52.122;5.502;2023-06-24T13:23:03;31.60;99.90
18611;DHT22;9435;52.122;5.502;2023-06-24T13:25:30;31.50;99.90
18611;DHT22;9435;52.122;5.502;2023-06-24T13:27:58;31.20;99.90
18611;DHT22;9435;52.122;5.502;2023-06-24T13:30:26;30.80;99.90
18611;DHT22;9435;52.122;5.502;2023-06-24T13:32:53;30.90;99.90
18611;DHT22;9435;52.122;5.502;2023-06-24T13:35:20;31.00;99.90
18611;DHT22;9435;52.122;5.502;2023-06-24T13:37:47;30.90;99.90
18611;DHT22;9435;52.122;5.502;2023-06-24T13:40:16;31.10;99.90
18611;DHT22;9435;52.122;5.502;2023-06-24T13:42:43;31.10;99.90
18611;DHT22;9435;52.122;5.502;2023-06-24T13:45:10;30.90;99.90
18611;DHT22;9435;52.122;5.502;2023-06-24T13:47:38;30.80;99.90
18611;DHT22;9435;52.122;5.502;2023-06-24T13:50:06;30.70;99.90
18611;DHT22;9435;52.122;5.502;2023-06-24T13:52:33;30.50;99.90
18611;DHT22;9435;52.122;5.502;2023-06-24T13:55:02;30.60;99.90
18611;DHT22;9435;52.122;5.502;2023-06-24T13:57:31;30.60;99.90
18611;DHT22;9435;52.122;5.502;2023-06-24T13:59:58;30.50;99.90
18611;DHT22;9435;52.122;5.502;2023-06-24T14:02:26;30.70;99.90
18611;DHT22;9435;52.122;5.502;2023-06-24T14:04:53;30.70;99.90
18611;DHT22;9435;52.122;5.502;2023-06-24T14:07:23;30.80;99.90
18611;DHT22;9435;52.122;5.502;2023-06-24T14:09:51;30.60;99.90
18611;DHT22;9435;52.122;5.502;2023-06-24T14:12:18;30.60;99.90
18611;DHT22;9435;52.122;5.502;2023-06-24T14:14:47;30.60;99.90
18611;DHT22;9435;52.122;5.502;2023-06-24T14:17:14;30.50;99.90
18611;DHT22;9435;52.122;5.502;2023-06-24T14:19:41;30.50;99.90
18611;DHT22;9435;52.122;5.502;2023-06-24T14:22:08;30.90;99.90
18611;DHT22;9435;52.122;5.502;2023-06-24T14:24:36;30.90;99.90
18611;DHT22;9435;52.122;5.502;2023-06-24T14:27:05;30.90;99.90
18611;DHT22;9435;52.122;5.502;2023-06-24T14:29:32;31.20;99.90
18611;DHT22;9435;52.122;5.502;2023-06-24T14:32:03;31.10;99.90
18611;DHT22;9435;52.122;5.502;2023-06-24T14:34:31;31.30;99.90
18611;DHT22;9435;52.122;5.502;2023-06-24T14:36:58;31.30;99.90
18611;DHT22;9435;52.122;5.502;2023-06-24T14:39:25;31.50;99.90
18611;DHT22;9435;52.122;5.502;2023-06-24T14:41:54;31.60;99.90
18611;DHT22;9435;52.122;5.502;2023-06-24T14:44:21;31.70;99.90
18611;DHT22;9435;52.122;5.502;2023-06-24T14:46:48;31.70;99.90
18611;DHT22;9435;52.122;5.502;2023-06-24T14:49:17;31.50;99.90
18611;DHT22;9435;52.122;5.502;2023-06-24T14:51:44;31.20;99.90
18611;DHT22;9435;52.122;5.502;2023-06-24T14:54:12;30.80;99.90
18611;DHT22;9435;52.122;5.502;2023-06-24T14:56:39;30.70;99.90
18611;DHT22;9435;52.122;5.502;2023-06-24T14:59:06;30.70;99.90
18611;DHT22;9435;52.122;5.502;2023-06-24T15:01:33;31.00;99.90
18611;DHT22;9435;52.122;5.502;2023-06-24T15:04:01;30.90;99.90
18611;DHT22;9435;52.122;5.502;2023-06-24T15:06:29;31.00;99.90
18611;DHT22;9435;52.122;5.502;2023-06-24T15:08:56;30.90;99.90
18611;DHT22;9435;52.122;5.502;2023-06-24T15:11:23;30.80;99.90
18611;DHT22;9435;52.122;5.502;2023-06-24T15:13:51;30.80;99.90
18611;DHT22;9435;52.122;5.502;2023-06-24T15:16:18;30.90;99.90
18611;DHT22;9435;52.122;5.502;2023-06-24T15:18:48;30.80;99.90
18611;DHT22;9435;52.122;5.502;2023-06-24T15:21:16;30.80;99.90
18611;DHT22;9435;52.122;5.502;2023-06-24T15:23:44;30.90;99.90
18611;DHT22;9435;52.122;5.502;2023-06-24T15:26:11;30.70;99.90
18611;DHT22;9435;52.122;5.502;2023-06-24T15:28:39;30.60;99.90
18611;DHT22;9435;52.122;5.502;2023-06-24T15:31:06;30.70;99.90
18611;DHT22;9435;52.122;5.502;2023-06-24T15:33:33;30.70;99.90
18611;DHT22;9435;52.122;5.502;2023-06-24T15:36:00;30.80;99.90
18611;DHT22;9435;52.122;5.502;2023-06-24T15:38:27;30.60;99.90
18611;DHT22;9435;52.122;5.502;2023-06-24T15:40:56;30.20;99.90
18611;DHT22;9435;52.122;5.502;2023-06-24T15:43:23;30.20;99.90
18611;DHT22;9435;52.122;5.502;2023-06-24T15:45:50;30.20;99.90
18611;DHT22;9435;52.122;5.502;2023-06-24T15:48:17;29.90;99.90
18611;DHT22;9435;52.122;5.502;2023-06-24T15:50:44;30.10;99.90
18611;DHT22;9435;52.122;5.502;2023-06-24T15:53:12;30.00;99.90
18611;DHT22;9435;52.122;5.502;2023-06-24T15:55:40;29.90;99.90
18611;DHT22;9435;52.122;5.502;2023-06-24T15:58:10;29.80;99.90